Time;durP1;ratioP1;P1;durP2;ratioP2;P2;SDS_P1;SDS_P2;PMS_P1;PMS_P2;Temp;Humidity;BMP_temperature;BMP_pressure;BME280_temperature;BME280_humidity;BME280_pressure;Samples;Min_cycle;Max_cycle;Signal;HPM_P1;HPM_P2
2023/03/20 00:02:06;;;;;;;5.50;3.20;;;;;;;;;;5027596;28;20065;-63
2023/03/20 00:04:32;;;;;;;8.30;3.53;;;;;;;;;;5028520;28;20357;-63
2023/03/20 00:06:59;;;;;;;7.20;4.78;;;;;;;;;;5009057;28;20100;-63
2023/03/20 00:09:25;;;;;;;7.53;3.58;;;;;;;;;;5031172;28;20132;-63
2023/03/20 00:11:52;;;;;;;9.18;3.53;;;;;;;;;;5027555;28;20399;-63
2023/03/20 00:14:21;;;;;;;13.32;4.43;;;;;;;;;;5022014;28;20084;-63
2023/03/20 00:16:48;;;;;;;10.15;4.13;;;;;;;;;;5019462;28;20145;-63
2023/03/20 00:19:16;;;;;;;5.32;3.45;;;;;;;;;;5028769;28;20475;-63
2023/03/20 00:21:44;;;;;;;7.47;4.43;;;;;;;;;;5008105;28;20054;-63
2023/03/20 00:24:10;;;;;;;7.82;4.03;;;;;;;;;;5024882;28;20035;-63
2023/03/20 00:26:37;;;;;;;10.00;4.95;;;;;;;;;;5020628;28;20096;-63
2023/03/20 00:29:04;;;;;;;8.80;4.57;;;;;;;;;;5028312;28;20329;-63
2023/03/20 00:31:31;;;;;;;7.60;4.22;;;;;;;;;;5027168;28;20049;-63
2023/03/20 00:34:02;;;;;;;10.98;5.57;;;;;;;;;;5022270;28;20451;-63
2023/03/20 00:36:28;;;;;;;13.90;5.95;;;;;;;;;;5003043;28;20041;-63
2023/03/20 00:38:58;;;;;;;8.88;5.03;;;;;;;;;;5027066;28;20091;-63
2023/03/20 00:41:28;;;;;;;12.75;5.40;;;;;;;;;;5027364;28;20042;-63
2023/03/20 00:44:02;;;;;;;9.45;5.22;;;;;;;;;;5018500;28;20164;-63
2023/03/20 00:46:30;;;;;;;6.97;5.25;;;;;;;;;;5029155;28;20487;-63
2023/03/20 00:48:56;;;;;;;8.55;5.32;;;;;;;;;;5028312;28;20073;-63
2023/03/20 00:51:22;;;;;;;9.27;5.55;;;;;;;;;;5028541;28;20033;-63
2023/03/20 00:53:48;;;;;;;10.25;5.07;;;;;;;;;;5014834;28;20392;-72
2023/03/20 00:56:28;;;;;;;11.57;5.10;;;;;;;;;;5029010;28;20743;-63
2023/03/20 00:58:54;;;;;;;10.45;5.60;;;;;;;;;;5029386;28;20038;-63
2023/03/20 01:01:20;;;;;;;11.40;5.30;;;7.90;99.90;;;;;;5028503;28;20091;-63
2023/03/20 01:03:46;;;;;;;7.85;5.13;;;;;;;;;;5034027;28;20072;-63
2023/03/20 01:06:13;;;;;;;10.10;6.05;;;;;;;;;;4995809;28;20106;-63
2023/03/20 01:08:39;;;;;;;10.95;5.30;;;;;;;;;;5028883;28;20072;-63
2023/03/20 01:11:05;;;;;;;11.55;4.90;;;;;;;;;;5028121;28;20046;-63
2023/03/20 01:13:31;;;;;;;12.52;5.22;;;;;;;;;;5028888;28;20535;-63
2023/03/20 01:15:58;;;;;;;15.30;5.60;;;;;;;;;;5027779;28;20492;-63
2023/03/20 01:18:25;;;;;;;8.23;5.55;;;;;;;;;;5026757;28;20116;-63
2023/03/20 01:20:54;;;;;;;10.50;4.63;;;;;;;;;;5027675;28;20049;-63
2023/03/20 01:23:25;;;;;;;11.63;6.63;;;;;;;;;;5027688;28;20056;-63
2023/03/20 01:25:51;;;;;;;9.75;5.60;;;;;;;;;;5020172;28;20514;-63
2023/03/20 01:28:19;;;;;;;18.10;7.20;;;;;;;;;;5028266;28;20124;-63
2023/03/20 01:30:46;;;;;;;12.95;5.53;;;;;;;;;;5027056;28;20041;-63
2023/03/20 01:33:19;;;;;;;12.80;5.47;;;;;;;;;;5027486;28;20471;-63
2023/03/20 01:35:46;;;;;;;15.45;6.10;;;;;;;;;;5025327;28;20053;-63
2023/03/20 01:38:19;;;;;;;14.45;5.75;;;;;;;;;;5023058;28;20495;-63
2023/03/20 01:40:54;;;;;;;12.55;6.05;;;;;;;;;;5025613;28;20045;-63
2023/03/20 01:43:21;;;;;;;12.35;7.00;;;;;;;;;;5005053;28;20585;-63
2023/03/20 01:46:00;;;;;;;15.48;6.38;;;;;;;;;;5020144;28;20056;-68
2023/03/20 01:48:32;;;;;;;15.60;5.53;;;;;;;;;;5025865;28;20372;-64
2023/03/20 01:50:58;;;;;;;14.88;6.78;;;;;;;;;;5026166;28;20458;-68
2023/03/20 01:53:26;;;;;;;13.27;6.35;;;;;;;;;;5026803;28;20263;-63
2023/03/20 01:55:55;;;;;;;9.55;5.50;;;;;;;;;;5027641;28;20060;-63
2023/03/20 01:58:24;;;;;;;11.65;6.47;;;;;;;;;;5027777;28;20041;-63
2023/03/20 02:00:50;;;;;;;10.30;6.70;;;;;;;;;;5027658;28;20063;-63
2023/03/20 02:03:16;;;;;;;10.85;6.07;;;;;;;;;;5029147;28;20125;-63
2023/03/20 02:05:44;;;;;;;13.48;5.90;;;;;;;;;;5008836;28;20049;-63
2023/03/20 02:08:15;;;;;;;9.50;5.75;;;;;;;;;;5024802;28;20423;-63
2023/03/20 02:10:41;;;;;;;8.85;5.65;;;;;;;;;;4995401;28;20032;-63
2023/03/20 02:13:07;;;;;;;15.95;6.10;;;;;;;;;;5027661;28;20041;-63
2023/03/20 02:15:34;;;;;;;9.88;5.93;;;;;;;;;;5027069;28;20452;-63
2023/03/20 02:18:00;;;;;;;11.35;6.30;;;;;;;;;;5027312;28;20116;-63
2023/03/20 02:20:32;;;;;;;16.52;6.80;;;;;;;;;;5044283;28;20048;-63
2023/03/20 02:23:27;;;;;;;16.50;6.47;;;;;;;;;;5067255;28;20083;-63
2023/03/20 02:26:12;;;;;;;15.82;6.95;;;;;;;;;;5067356;28;20309;-63
2023/03/20 02:28:44;;;;;;;18.73;6.80;;;;;;;;;;5069195;28;20044;-63
2023/03/20 02:31:16;;;;;;;15.65;6.40;;;;;;;;;;5066942;28;20482;-63
2023/03/20 02:33:43;;;;;;;14.83;6.80;;;;;;;;;;5067595;28;20036;-63
2023/03/20 02:36:09;;;;;;;13.77;7.07;;;;;;;;;;5066543;28;20394;-63
2023/03/20 02:38:36;;;;;;;16.35;7.53;;;;;;;;;;5065114;28;20051;-63
2023/03/20 02:41:08;;;;;;;11.90;6.80;;;;;;;;;;5067191;28;20036;-63
2023/03/20 02:43:46;;;;;;;10.93;6.03;;;;;;;;;;5053185;28;20116;-63
2023/03/20 02:46:15;;;;;;;11.80;7.43;;;;;;;;;;5038580;28;20048;-63
2023/03/20 02:48:41;;;;;;;13.10;7.22;;;;;;;;;;5045670;28;20055;-63
2023/03/20 02:51:20;;;;;;;13.88;6.97;;;;;;;;;;5064087;28;20082;-63
2023/03/20 02:54:03;;;;;;;12.20;6.30;;;;;;;;;;5066246;28;20033;-63
2023/03/20 02:56:30;;;;;;;15.20;6.55;;;;;;;;;;5066169;28;20440;-63
2023/03/20 02:59:02;;;;;;;11.88;7.05;;;;;;;;;;5068697;28;20189;-63
2023/03/20 03:01:32;;;;;;;11.30;8.03;;;;;;;;;;5068928;28;20060;-63
2023/03/20 03:04:27;;;;;;;12.70;7.35;;;;;;;;;;5067769;28;20063;-63
2023/03/20 03:06:55;;;;;;;12.80;6.38;;;;;;;;;;5047593;28;20048;-63
2023/03/20 03:09:36;;;;;;;16.92;8.20;;;;;;;;;;5066819;28;20114;-63
2023/03/20 03:12:22;;;;;;;13.95;7.78;;;;;;;;;;5067142;28;20414;-63
2023/03/20 03:14:56;;;;;;;12.60;8.15;;;;;;;;;;5054897;28;20102;-63
2023/03/20 03:17:25;;;;;;;13.13;7.45;;;;;;;;;;5057565;28;20283;-63
2023/03/20 03:19:53;;;;;;;14.30;7.82;;;;;;;;;;5067981;28;20052;-63
2023/03/20 03:22:20;;;;;;;11.35;5.90;;;;;;;;;;5069633;28;20098;-63
2023/03/20 03:24:50;;;;;;;14.80;7.03;;;;;;;;;;5067125;28;20105;-63
2023/03/20 03:27:19;;;;;;;16.38;6.60;;;;;;;;;;5070218;28;20076;-63
2023/03/20 03:29:47;;;;;;;10.43;7.03;;;;;;;;;;5069151;28;20040;-63
2023/03/20 03:32:25;;;;;;;9.38;5.95;;;;;;;;;;5068246;28;20059;-63
2023/03/20 03:34:51;;;;;;;11.52;5.90;;;;;;;;;;5064372;28;20132;-63
2023/03/20 03:37:26;;;;;;;11.05;6.22;;;;;;;;;;5064413;28;20037;-63
2023/03/20 03:40:04;;;;;;;10.13;5.32;;;;;;;;;;5068641;28;20064;-63
2023/03/20 03:42:35;;;;;;;10.00;6.38;;;;;;;;;;5067965;28;20036;-63
2023/03/20 03:45:05;;;;;;;17.55;5.93;;;;;;;;;;5061868;28;20041;-63
2023/03/20 03:47:37;;;;;;;14.25;6.88;;;;;;;;;;5069636;28;20051;-63
2023/03/20 03:50:10;;;;;;;18.23;7.55;;;;;;;;;;5070292;28;20501;-63
2023/03/20 03:52:36;;;;;;;10.65;5.80;;;;;;;;;;5070074;28;20110;-63
2023/03/20 03:55:04;;;;;;;15.07;6.97;;;;;;;;;;5069461;28;20037;-63
2023/03/20 03:57:39;;;;;;;14.63;7.07;;;;;;;;;;5070380;28;20064;-63
2023/03/20 04:00:07;;;;;;;17.40;6.90;;;;;;;;;;5064245;28;20511;-63
2023/03/20 04:02:34;;;;;;;13.45;7.10;;;;;;;;;;5052036;28;20112;-63
2023/03/20 04:05:01;;;;;;;10.68;6.57;;;;;;;;;;5048931;28;20048;-63
2023/03/20 04:07:28;;;;;;;17.60;7.95;;;;;;;;;;5063608;28;20060;-63
2023/03/20 04:09:54;;;;;;;12.95;7.68;;;;;;;;;;5060448;28;20083;-63
2023/03/20 04:12:39;;;;;;;18.70;7.95;;;;;;;;;;5052640;28;20044;-63
2023/03/20 04:15:06;;;;;;;20.85;8.40;;;;;;;;;;5050597;28;20112;-63
2023/03/20 04:17:33;;;;;;;14.52;8.85;;;;;;;;;;5069536;28;20505;-63
2023/03/20 04:19:59;;;;;;;14.75;10.38;;;;;;;;;;5068574;28;20299;-63
2023/03/20 04:22:25;;;;;;;18.48;9.88;;;;;;;;;;5069162;28;20048;-63
2023/03/20 04:24:51;;;;;;;17.73;9.93;;;;;;;;;;5069628;28;20089;-63
2023/03/20 04:27:18;;;;;;;19.13;11.30;;;;;;;;;;5069168;28;20047;-63
2023/03/20 04:29:44;;;;;;;19.83;11.68;;;;;;;;;;5069268;28;20052;-63
2023/03/20 04:32:10;;;;;;;21.75;10.68;;;;;;;;;;5068043;28;20253;-63
2023/03/20 04:34:37;;;;;;;19.73;10.98;;;;;;;;;;5060666;28;20570;-63
2023/03/20 04:37:04;;;;;;;18.52;11.13;;;;;;;;;;5067663;28;20248;-63
2023/03/20 04:39:30;;;;;;;19.55;9.90;;;;;;;;;;5068443;28;20561;-63
2023/03/20 04:41:56;;;;;;;17.63;9.95;;;;;;;;;;5067956;28;20067;-63
2023/03/20 04:44:22;;;;;;;16.27;11.15;;;;;;;;;;5068912;28;20146;-63
2023/03/20 04:46:49;;;;;;;17.85;9.35;;;;;;;;;;5068058;28;20047;-63
2023/03/20 04:49:15;;;;;;;14.10;8.98;;;;;;;;;;5050861;28;20068;-63
2023/03/20 04:51:41;;;;;;;16.40;9.77;;;;;;;;;;5069058;28;20052;-63
2023/03/20 04:54:07;;;;;;;17.65;10.10;;;;;;;;;;5069658;28;20037;-63
2023/03/20 04:56:33;;;;;;;24.33;9.18;;;;;;;;;;5069166;28;20468;-63
2023/03/20 04:58:59;;;;;;;22.17;11.50;;;;;;;;;;5051067;28;20052;-63
2023/03/20 05:01:25;;;;;;;16.02;10.40;;;;;;;;;;5050425;28;20063;-63
2023/03/20 05:03:51;;;;;;;20.48;11.57;;;;;;;;;;5067917;28;20033;-63
2023/03/20 05:06:18;;;;;;;20.73;10.73;;;;;;;;;;5068349;28;20516;-63
2023/03/20 05:08:44;;;;;;;16.45;11.20;;;;;;;;;;5052868;28;20172;-63
2023/03/20 05:11:10;;;;;;;22.35;12.20;;;;;;;;;;5068505;28;20044;-64
2023/03/20 05:13:36;;;;;;;22.67;11.40;;;;;;;;;;5050466;28;20513;-63
2023/03/20 05:16:02;;;;;;;25.77;12.07;;;;;;;;;;5067757;28;20111;-63
2023/03/20 05:18:28;;;;;;;21.63;12.65;;;;;;;;;;5066262;28;20046;-63
2023/03/20 05:20:54;;;;;;;23.30;11.68;;;;;;;;;;5067412;28;20371;-63
2023/03/20 05:23:20;;;;;;;27.70;13.70;;;;;;;;;;5062750;28;20048;-65
2023/03/20 05:25:47;;;;;;;35.50;13.63;;;;;;;;;;5057676;28;20041;-63
2023/03/20 05:28:13;;;;;;;22.00;12.85;;;;;;;;;;5055663;28;20423;-63
2023/03/20 05:30:39;;;;;;;22.83;14.40;;;;;;;;;;5061393;28;20045;-63
2023/03/20 05:33:06;;;;;;;24.05;13.10;;;;;;;;;;5065021;28;20070;-63
2023/03/20 05:35:33;;;;;;;28.80;14.68;;;;;;;;;;5065883;28;20040;-63
2023/03/20 05:37:59;;;;;;;24.23;12.88;;;;;;;;;;5038045;28;20187;-63
2023/03/20 05:40:25;;;;;;;25.50;13.38;;;;;;;;;;5062043;28;20147;-63
2023/03/20 05:42:51;;;;;;;24.90;13.73;;;;;;;;;;5062783;28;20036;-63
2023/03/20 05:45:18;;;;;;;23.38;13.43;;;;;;;;;;5065027;28;20063;-63
2023/03/20 05:47:44;;;;;;;19.88;12.48;;;;;;;;;;5066074;28;20075;-63
2023/03/20 05:50:10;;;;;;;23.98;13.15;;;;;;;;;;5066919;28;20115;-64
2023/03/20 05:52:37;;;;;;;23.38;13.52;;;;;;;;;;5068304;28;20728;-63
2023/03/20 05:55:03;;;;;;;21.58;13.18;;;;;;;;;;5067085;28;20032;-63
2023/03/20 05:57:29;;;;;;;23.08;11.95;;;;;;;;;;5064788;28;20068;-63
2023/03/20 05:59:56;;;;;;;25.23;13.63;;;;;;;;;;5048547;28;20115;-63
2023/03/20 06:02:22;;;;;;;23.58;12.80;;;;;;;;;;5056460;28;20131;-63
2023/03/20 06:04:48;;;;;;;23.38;12.52;;;;;;;;;;5066558;28;20044;-63
2023/03/20 06:07:14;;;;;;;24.17;12.98;;;;;;;;;;5046192;28;20048;-63
2023/03/20 06:09:41;;;;;;;18.02;12.18;;;;;;;;;;5065900;28;20393;-63
2023/03/20 06:12:07;;;;;;;33.47;12.55;;;;;;;;;;5053583;28;20036;-63
2023/03/20 06:14:33;;;;;;;20.27;12.70;;;;;;;;;;5065469;28;20358;-63
2023/03/20 06:16:59;;;;;;;24.73;12.85;;;;;;;;;;5064690;28;20283;-63
2023/03/20 06:19:25;;;;;;;21.70;13.38;;;;;;;;;;5062493;28;20059;-63
2023/03/20 06:21:52;;;;;;;25.35;14.40;;;;;;;;;;5066299;28;20057;-63
2023/03/20 06:24:18;;;;;;;26.40;14.48;;;;;;;;;;5069163;28;20089;-63
2023/03/20 06:26:44;;;;;;;19.15;12.30;;;;;;;;;;5067611;28;20115;-63
2023/03/20 06:29:10;;;;;;;25.13;14.20;;;;;;;;;;5066442;28;20055;-63
2023/03/20 06:31:36;;;;;;;24.42;12.93;;;;;;;;;;5064303;28;20069;-63
2023/03/20 06:34:03;;;;;;;24.23;14.45;;;;;;;;;;5055379;28;20119;-63
2023/03/20 06:36:30;;;;;;;21.95;14.32;;;;;;;;;;5041841;28;20588;-63
2023/03/20 06:38:56;;;;;;;23.33;14.18;;;;;;;;;;5055119;28;20120;-63
2023/03/20 06:41:22;;;;;;;23.85;13.68;;;;;;;;;;5064763;28;20275;-63
2023/03/20 06:43:48;;;;;;;20.13;13.07;;;;;;;;;;5048811;28;20040;-63
2023/03/20 06:46:15;;;;;;;21.15;13.23;;;;;;;;;;5063885;28;20037;-63
2023/03/20 06:48:41;;;;;;;26.38;14.55;;;;;;;;;;5061972;28;20040;-63
2023/03/20 06:51:07;;;;;;;23.45;12.95;;;;;;;;;;5054419;28;20565;-63
2023/03/20 06:53:33;;;;;;;21.63;14.85;;;;;;;;;;5057498;28;20097;-63
2023/03/20 06:55:59;;;;;;;27.17;14.55;;;;;;;;;;5059330;28;20889;-63
2023/03/20 06:58:26;;;;;;;24.85;15.40;;;;;;;;;;5069425;28;20095;-63
2023/03/20 07:00:53;;;;;;;25.48;14.77;;;;;;;;;;5062846;28;20056;-63
2023/03/20 07:03:20;;;;;;;26.90;14.98;;;;;;;;;;5046505;28;20052;-63
2023/03/20 07:05:46;;;;;;;23.98;14.38;;;;;;;;;;5044831;28;20143;-63
2023/03/20 07:08:12;;;;;;;22.38;13.70;;;;;;;;;;5059962;28;20186;-63
2023/03/20 07:10:38;;;;;;;31.73;15.50;;;;;;;;;;5062305;28;20044;-63
2023/03/20 07:13:04;;;;;;;32.10;15.00;;;;;;;;;;5065568;28;20039;-63
2023/03/20 07:15:31;;;;;;;29.52;15.25;;;;;;;;;;5052602;28;20044;-63
2023/03/20 07:17:57;;;;;;;25.15;15.82;;;;;;;;;;5062481;28;20062;-63
2023/03/20 07:20:23;;;;;;;22.98;13.13;;;;;;;;;;5063055;28;20094;-63
2023/03/20 07:22:49;;;;;;;21.45;13.98;;;;;;;;;;5061733;28;20140;-63
2023/03/20 07:25:15;;;;;;;27.15;15.82;;;;;;;;;;5035962;28;20044;-63
2023/03/20 07:27:48;;;;;;;26.63;14.88;;;;;;;;;;5063110;28;20047;-63
2023/03/20 07:30:14;;;;;;;26.15;14.35;;;;;;;;;;5061264;28;20048;-63
2023/03/20 07:32:41;;;;;;;25.33;13.65;;;;;;;;;;5060579;28;20045;-63
2023/03/20 07:35:08;;;;;;;23.38;15.13;;;;;;;;;;5041963;28;20314;-63
2023/03/20 07:37:34;;;;;;;30.10;14.80;;;;;;;;;;5050972;28;20536;-63
2023/03/20 07:40:00;;;;;;;31.40;16.08;;;;;;;;;;5063255;28;20401;-63
2023/03/20 07:42:26;;;;;;;32.17;16.17;;;;;;;;;;5065928;28;20415;-63
2023/03/20 07:44:52;;;;;;;22.60;14.55;;;;;;;;;;5067986;28;20049;-63
2023/03/20 07:47:18;;;;;;;26.50;15.13;;;;;;;;;;5066357;28;20092;-63
2023/03/20 07:49:45;;;;;;;30.35;15.85;;;;;;;;;;5069718;28;20555;-63
2023/03/20 07:52:11;;;;;;;27.95;16.35;;;;;;;;;;5069460;28;20037;-63
2023/03/20 07:54:37;;;;;;;27.52;14.27;;;;;;;;;;5066187;28;20071;-63
2023/03/20 07:57:04;;;;;;;26.55;14.77;;;;;;;;;;5053657;28;20036;-63
2023/03/20 07:59:30;;;;;;;24.48;14.57;;;;;;;;;;5063233;28;20651;-63
2023/03/20 08:01:57;;;;;;;23.92;14.35;;;;;;;;;;5068274;28;20415;-63
2023/03/20 08:04:23;;;;;;;25.15;14.32;;;;;;;;;;5069713;28;20039;-63
2023/03/20 08:06:49;;;;;;;25.80;13.93;;;;;;;;;;5070165;28;20067;-63
2023/03/20 08:09:15;;;;;;;26.08;14.23;;;;;;;;;;5067806;28;20107;-63
2023/03/20 08:11:42;;;;;;;24.30;13.32;;;;;;;;;;5065423;28;20128;-63
2023/03/20 08:14:08;;;;;;;27.92;14.60;;;;;;;;;;5050776;28;20051;-63
2023/03/20 08:16:34;;;;;;;23.33;14.45;;;;;;;;;;5067427;28;20036;-63
2023/03/20 08:19:02;;;;;;;23.38;13.80;;;;;;;;;;5064408;28;20071;-63
2023/03/20 08:21:31;;;;;;;27.88;14.48;;;;;;;;;;5058064;28;20057;-63
2023/03/20 08:23:57;;;;;;;23.42;12.40;;;;;;;;;;5040145;28;20040;-63
2023/03/20 08:26:24;;;;;;;25.60;14.70;;;;;;;;;;5059690;28;20123;-63
2023/03/20 08:28:51;;;;;;;23.98;12.25;;;;;;;;;;5064468;28;20511;-65
2023/03/20 08:31:17;;;;;;;20.08;13.00;;;;;;;;;;5063194;28;20127;-63
2023/03/20 08:33:44;;;;;;;16.83;12.00;;;;;;;;;;5050769;28;20465;-63
2023/03/20 08:36:11;;;;;;;22.95;13.02;;;;;;;;;;5068805;28;20169;-63
2023/03/20 08:38:37;;;;;;;27.60;13.63;;;;;;;;;;5067237;28;20098;-63
2023/03/20 08:41:03;;;;;;;19.33;11.70;;;;;;;;;;5065191;28;20147;-63
2023/03/20 08:43:29;;;;;;;18.55;11.75;;;;;;;;;;5068174;28;20036;-63
2023/03/20 08:45:55;;;;;;;21.65;11.82;;;;;;;;;;5069383;28;20406;-63
2023/03/20 08:48:21;;;;;;;20.50;12.80;;;;;;;;;;5045340;28;20556;-63
2023/03/20 08:50:48;;;;;;;19.67;11.35;;;;;;;;;;5068621;28;20051;-63
2023/03/20 08:53:14;;;;;;;24.17;12.00;;;;;;;;;;5047279;28;20105;-63
2023/03/20 08:55:40;;;;;;;25.08;12.38;;;;;;;;;;5061806;28;20114;-63
2023/03/20 08:58:06;;;;;;;14.73;10.50;;;;;;;;;;5066330;28;20055;-63
2023/03/20 09:00:32;;;;;;;23.80;11.77;;;;;;;;;;5066559;28;20068;-63
2023/03/20 09:02:58;;;;;;;20.48;11.63;;;;;;;;;;5066242;28;20036;-63
2023/03/20 09:05:25;;;;;;;20.20;11.70;;;;;;;;;;5064474;28;20383;-63
2023/03/20 09:07:51;;;;;;;17.40;10.90;;;;;;;;;;5031149;28;20036;-63
2023/03/20 09:10:17;;;;;;;20.08;10.90;;;;;;;;;;5060686;28;20136;-63
2023/03/20 09:12:43;;;;;;;16.65;10.75;;;7.40;99.90;;;;;;5067512;28;20048;-63
2023/03/20 09:15:09;;;;;;;22.27;10.45;;;8.60;99.90;;;;;;5064633;28;20041;-63
2023/03/20 09:17:35;;;;;;;19.30;10.45;;;8.60;99.90;;;;;;5059450;28;20131;-63
2023/03/20 09:20:01;;;;;;;18.40;10.75;;;8.60;99.90;;;;;;5061699;28;20135;-63
2023/03/20 09:22:27;;;;;;;18.33;10.52;;;8.60;99.90;;;;;;5031559;28;20492;-63
2023/03/20 09:24:53;;;;;;;23.77;11.95;;;;;;;;;;5066161;28;20465;-63
2023/03/20 09:27:20;;;;;;;16.08;10.68;;;;;;;;;;5028332;28;20049;-63
2023/03/20 09:29:46;;;;;;;22.60;12.02;;;;;;;;;;5055251;28;20047;-63
2023/03/20 09:32:14;;;;;;;19.00;12.38;;;;;;;;;;5061617;28;20099;-63
2023/03/20 09:34:40;;;;;;;18.33;11.75;;;;;;;;;;5032314;28;20363;-63
2023/03/20 09:37:06;;;;;;;20.42;12.30;;;;;;;;;;5058122;28;20408;-63
2023/03/20 09:39:33;;;;;;;18.52;11.15;;;;;;;;;;5054363;28;20073;-63
2023/03/20 09:42:02;;;;;;;15.85;10.32;;;;;;;;;;5068167;28;20390;-64
2023/03/20 09:44:31;;;;;;;20.08;11.10;;;;;;;;;;5060966;28;20090;-63
2023/03/20 09:46:58;;;;;;;22.88;11.48;;;;;;;;;;5057394;28;20066;-63
2023/03/20 09:49:24;;;;;;;18.00;11.20;;;;;;;;;;5066143;28;20041;-63
2023/03/20 09:52:02;;;;;;;18.00;11.43;;;;;;;;;;5037958;28;20463;-63
2023/03/20 09:54:30;;;;;;;26.40;12.30;;;;;;;;;;5061838;28;20494;-63
2023/03/20 09:56:57;;;;;;;20.35;11.85;;;;;;;;;;5046168;28;20037;-63
2023/03/20 09:59:24;;;;;;;17.58;11.63;;;;;;;;;;5062898;28;20319;-63
2023/03/20 10:01:56;;;;;;;31.80;12.45;;;;;;;;;;5065640;28;20101;-63
2023/03/20 10:04:25;;;;;;;22.92;12.30;;;;;;;;;;5070577;28;20504;-63
2023/03/20 10:06:51;;;;;;;20.23;12.75;;;;;;;;;;5065991;28;20037;-63
2023/03/20 10:09:20;;;;;;;19.83;12.35;;;;;;;;;;5068284;28;20411;-63
2023/03/20 10:11:46;;;;;;;22.35;11.57;;;;;;;;;;5064017;28;20032;-63
2023/03/20 10:14:21;;;;;;;18.42;10.35;;;;;;;;;;5033530;28;20130;-63
2023/03/20 10:17:17;;;;;;;20.90;11.65;;;;;;;;;;5058971;28;20085;-63
2023/03/20 10:19:49;;;;;;;17.80;10.95;;;;;;;;;;4988925;28;20050;-63
2023/03/20 10:22:15;;;;;;;17.10;11.43;;;;;;;;;;5066338;28;20044;-63
2023/03/20 10:24:51;;;;;;;23.95;10.65;;;;;;;;;;5066920;28;20054;-63
2023/03/20 10:27:22;;;;;;;14.70;10.48;;;;;;;;;;5065473;28;20183;-63
2023/03/20 10:30:01;;;;;;;15.35;10.07;;;;;;;;;;5047101;28;20544;-63
2023/03/20 10:32:36;;;;;;;15.80;10.13;;;;;;;;;;5062757;28;20275;-63
2023/03/20 10:35:05;;;;;;;18.08;9.73;;;;;;;;;;5063050;28;20115;-63
2023/03/20 10:37:37;;;;;;;15.00;9.35;;;;;;;;;;5067955;28;20102;-63
2023/03/20 10:40:16;;;;;;;24.75;10.40;;;;;;;;;;5062710;28;20048;-63
2023/03/20 10:42:45;;;;;;;14.90;11.00;;;;;;;;;;5059856;28;20059;-63
2023/03/20 10:45:17;;;;;;;17.35;12.00;;;;;;;;;;5051459;28;20041;-63
2023/03/20 10:47:44;;;;;;;16.48;9.10;;;;;;;;;;5065275;28;20371;-63
2023/03/20 10:50:15;;;;;;;17.63;10.68;;;;;;;;;;5054576;28;20036;-63
2023/03/20 10:52:42;;;;;;;23.25;11.50;;;;;;;;;;5067460;28;20044;-63
2023/03/20 10:55:28;;;;;;;21.80;10.00;;;;;;;;;;5062076;28;20501;-63
2023/03/20 10:57:57;;;;;;;14.95;9.40;;;;;;;;;;5066339;28;20055;-63
2023/03/20 11:00:25;;;;;;;15.38;10.48;;;;;;;;;;5064107;28;20071;-63
2023/03/20 11:02:52;;;;;;;19.55;10.13;;;;;;;;;;5060645;28;20051;-63
2023/03/20 11:05:21;;;;;;;17.20;10.07;;;;;;;;;;5044730;28;20398;-63
2023/03/20 11:07:51;;;;;;;18.50;10.30;;;;;;;;;;5047840;28;20102;-64
2023/03/20 11:10:17;;;;;;;15.30;9.25;;;;;;;;;;5066792;28;20080;-64
2023/03/20 11:12:45;;;;;;;20.63;8.65;;;;;;;;;;5066533;28;20390;-64
2023/03/20 11:15:20;;;;;;;17.77;9.98;;;;;;;;;;5060926;28;20037;-64
2023/03/20 11:17:56;;;;;;;23.38;10.60;;;;;;;;;;5063325;28;20490;-66
2023/03/20 11:20:27;;;;;;;14.38;10.52;;;;;;;;;;5065949;28;20064;-64
2023/03/20 11:23:02;;;;;;;23.20;11.13;;;;;;;;;;5069763;28;20044;-64
2023/03/20 11:25:30;;;;;;;22.10;11.90;;;;;;;;;;5065950;28;20495;-64
2023/03/20 11:27:57;;;;;;;20.20;11.45;;;;;;;;;;5066396;28;20040;-64
2023/03/20 11:30:24;;;;;;;28.42;13.20;;;;;;;;;;5048230;28;20099;-64
2023/03/20 11:32:54;;;;;;;20.67;11.00;;;;;;;;;;5053063;28;20036;-64
2023/03/20 11:35:23;;;;;;;23.27;13.27;;;;;;;;;;5036780;28;20040;-64
2023/03/20 11:37:51;;;;;;;18.48;12.55;;;;;;;;;;5066610;28;20040;-64
2023/03/20 11:40:33;;;;;;;24.67;13.30;;;;;;;;;;5069349;28;20079;-64
2023/03/20 11:43:02;;;;;;;22.98;13.52;;;;;;;;;;5063985;28;20041;-63
2023/03/20 11:45:36;;;;;;;24.67;14.85;;;;;;;;;;5067753;28;20123;-63
2023/03/20 11:48:03;;;;;;;26.27;12.98;;;;;;;;;;5062411;28;20044;-64
2023/03/20 11:50:32;;;;;;;20.67;12.27;;;;;;;;;;5068528;28;20621;-64
2023/03/20 11:52:58;;;;;;;19.80;12.43;;;;;;;;;;5068740;28;20122;-64
2023/03/20 11:55:26;;;;;;;17.10;11.73;;;;;;;;;;5067122;28;20043;-64
2023/03/20 11:57:56;;;;;;;19.33;12.02;;;;;;;;;;5065672;28;20036;-64
2023/03/20 12:00:23;;;;;;;22.52;12.05;;;;;;;;;;5058881;28;20036;-64
2023/03/20 12:02:50;;;;;;;18.42;12.73;;;8.70;99.90;;;;;;5066993;28;20413;-64
2023/03/20 12:05:35;;;;;;;18.20;12.98;;;8.20;99.90;;;;;;5058912;28;20457;-64
2023/03/20 12:08:11;;;;;;;17.42;12.75;;;8.20;99.90;;;;;;5043526;28;20298;-64
2023/03/20 12:10:41;;;;;;;21.35;12.73;;;8.10;99.90;;;;;;5060355;28;20103;-64
2023/03/20 12:13:20;;;;;;;16.77;12.70;;;8.10;99.90;;;;;;5069943;28;20472;-64
2023/03/20 12:15:54;;;;;;;21.55;13.23;;;8.10;99.90;;;;;;5030545;28;20056;-64
2023/03/20 12:18:47;;;;;;;17.00;12.77;;;8.10;99.90;;;;;;5060539;28;20056;-64
2023/03/20 12:21:26;;;;;;;17.35;12.70;;;8.10;99.90;;;;;;5063229;28;20069;-64
2023/03/20 12:23:55;;;;;;;20.67;14.25;;;8.10;99.90;;;;;;5065011;28;20044;-64
2023/03/20 12:26:36;;;;;;;24.45;12.43;;;8.00;99.90;;;;;;5065796;28;20036;-64
2023/03/20 12:29:06;;;;;;;21.05;12.18;;;8.00;99.90;;;;;;5064124;28;20064;-64
2023/03/20 12:32:16;;;;;;;17.92;12.88;;;8.00;99.90;;;;;;5064901;28;20374;-64
2023/03/20 12:34:46;;;;;;;17.48;12.95;;;8.00;99.90;;;;;;4957498;28;20053;-64
2023/03/20 12:37:17;;;;;;;15.30;11.70;;;8.00;99.90;;;;;;4954970;28;20648;-64
2023/03/20 12:40:05;;;;;;;18.45;13.57;;;8.00;99.90;;;;;;5000084;28;20116;-64
2023/03/20 12:43:00;;;;;;;21.83;13.23;;;8.10;99.90;;;;;;5067995;28;20036;-64
2023/03/20 12:45:34;;;;;;;21.05;13.25;;;8.10;99.90;;;;;;5064058;28;20040;-64
2023/03/20 12:48:18;;;;;;;17.33;13.00;;;8.10;99.90;;;;;;5069628;28;20040;-64
2023/03/20 12:50:52;;;;;;;20.40;13.35;;;8.10;99.90;;;;;;5051223;28;20044;-64
2023/03/20 12:53:35;;;;;;;20.27;13.20;;;8.10;99.90;;;;;;5068518;28;20537;-64
2023/03/20 12:56:24;;;;;;;19.15;13.80;;;;;;;;;;5074051;28;20047;-64
2023/03/20 12:58:56;;;;;;;22.10;13.75;;;;;;;;;;5067498;28;20037;-64
2023/03/20 13:01:35;;;;;;;19.15;13.55;;;;;;;;;;5055929;28;20472;-64
2023/03/20 13:04:19;;;;;;;19.83;13.65;;;;;;;;;;5061759;28;20430;-64
2023/03/20 13:07:01;;;;;;;17.13;12.00;;;;;;;;;;5063975;28;20068;-64
2023/03/20 13:09:27;;;;;;;22.55;15.43;;;;;;;;;;5045109;28;20094;-64
2023/03/20 13:11:53;;;;;;;21.13;13.20;;;;;;;;;;5052852;28;20123;-64
2023/03/20 13:14:19;;;;;;;18.10;12.55;;;;;;;;;;5050700;28;20090;-64
2023/03/20 13:16:52;;;;;;;15.35;11.90;;;;;;;;;;5068792;28;20097;-64
2023/03/20 13:19:25;;;;;;;16.42;12.77;;;;;;;;;;5034095;28;20566;-64
2023/03/20 13:22:10;;;;;;;19.00;13.02;;;;;;;;;;5066086;28;20048;-64
2023/03/20 13:24:40;;;;;;;16.30;13.07;;;;;;;;;;5061935;28;20177;-64
2023/03/20 13:27:09;;;;;;;18.35;12.80;;;;;;;;;;5059419;28;20044;-64
2023/03/20 13:29:47;;;;;;;16.08;12.32;;;;;;;;;;5050408;28;20079;-64
2023/03/20 13:32:22;;;;;;;20.90;14.35;;;;;;;;;;5068038;28;20045;-64
2023/03/20 13:34:51;;;;;;;17.73;13.23;;;;;;;;;;5047621;28;20473;-64
2023/03/20 13:37:34;;;;;;;19.92;14.32;;;;;;;;;;5055010;28;20072;-64
2023/03/20 13:40:00;;;;;;;;;;;;;;;;;;5063858;28;20044;-64
2023/03/20 13:42:30;;;;;;;21.08;13.82;;;;;;;;;;5065087;28;19931;-64
2023/03/20 13:44:59;;;;;;;20.55;14.48;;;;;;;;;;5064970;28;20051;-64
2023/03/20 13:47:27;;;;;;;19.45;14.25;;;;;;;;;;5055706;28;20032;-64
2023/03/20 13:49:54;;;;;;;18.77;12.93;;;;;;;;;;5065482;28;20580;-64
2023/03/20 13:52:23;;;;;;;20.13;14.18;;;;;;;;;;5031629;28;20036;-64
2023/03/20 13:54:55;;;;;;;15.90;12.90;;;;;;;;;;5058107;28;20058;-64
2023/03/20 13:57:26;;;;;;;17.02;13.00;;;;;;;;;;5057540;28;20039;-64
2023/03/20 14:00:04;;;;;;;20.58;14.45;;;;;;;;;;5060251;28;20090;-64
2023/03/20 14:03:01;;;;;;;15.50;12.40;;;;;;;;;;5034046;28;21262;-64
2023/03/20 14:05:29;;;;;;;17.33;13.32;;;;;;;;;;5062368;28;20046;-64
2023/03/20 14:07:57;;;;;;;18.55;14.25;;;;;;;;;;5054513;28;20048;-64
2023/03/20 14:10:23;;;;;;;17.20;12.55;;;;;;;;;;5059402;28;20094;-63
2023/03/20 14:12:50;;;;;;;17.65;13.15;;;;;;;;;;5054047;28;20489;-64
2023/03/20 14:15:18;;;;;;;22.10;14.27;;;;;;;;;;5041029;28;20041;-64
2023/03/20 14:17:46;;;;;;;19.17;14.40;;;;;;;;;;5057513;28;20169;-63
2023/03/20 14:20:20;;;;;;;17.05;13.20;;;;;;;;;;5059747;28;20075;-63
2023/03/20 14:22:47;;;;;;;19.05;13.07;;;;;;;;;;5059161;28;20053;-64
2023/03/20 14:25:18;;;;;;;18.77;14.10;;;;;;;;;;5061078;28;20126;-63
2023/03/20 14:27:53;;;;;;;20.75;14.35;;;;;;;;;;5060720;28;20390;-64